Time;durP1;ratioP1;P1;durP2;ratioP2;P2;SDS_P1;SDS_P2;PMS_P1;PMS_P2;Temp;Humidity;BMP_temperature;BMP_pressure;BME280_temperature;BME280_humidity;BME280_pressure;Samples;Min_cycle;Max_cycle;Signal;HPM_P1;HPM_P2
2021/05/07 00:00:55;;;;;;;3.87;2.23;;;7.30;99.90;;;;;;5028425;28;20567;-50
2021/05/07 00:03:22;;;;;;;4.73;2.10;;;7.30;99.90;;;;;;5028647;28;20751;-51
2021/05/07 00:05:54;;;;;;;5.23;2.33;;;7.10;99.90;;;;;;5028866;28;20299;-50
2021/05/07 00:08:22;;;;;;;5.43;2.33;;;7.10;99.90;;;;;;5028972;28;20233;-50
2021/05/07 00:10:50;;;;;;;4.70;2.50;;;7.10;99.90;;;;;;5028346;28;20233;-50
2021/05/07 00:13:18;;;;;;;4.03;2.47;;;7.00;99.90;;;;;;5028494;28;20241;-50
2021/05/07 00:15:46;;;;;;;6.10;2.73;;;7.00;99.90;;;;;;5028796;28;20600;-52
2021/05/07 00:18:13;;;;;;;7.27;2.37;;;7.00;99.90;;;;;;5029078;28;20277;-51
2021/05/07 00:20:41;;;;;;;2.53;2.20;;;7.00;99.90;;;;;;5028008;28;20252;-51
2021/05/07 00:23:09;;;;;;;6.07;2.33;;;7.00;99.90;;;;;;5043500;28;20260;-51
2021/05/07 00:25:36;;;;;;;5.07;2.33;;;7.10;99.90;;;;;;5028845;28;20708;-51
2021/05/07 00:28:06;;;;;;;3.67;2.20;;;7.20;99.90;;;;;;5029031;28;20248;-50
2021/05/07 00:30:36;;;;;;;4.03;2.30;;;7.30;99.90;;;;;;5027127;28;20707;-50
2021/05/07 00:33:04;;;;;;;4.30;2.33;;;7.40;99.90;;;;;;5042781;28;20570;-50
2021/05/07 00:35:32;;;;;;;2.43;2.20;;;7.40;99.90;;;;;;5027836;28;20229;-51
2021/05/07 00:37:59;;;;;;;4.20;2.70;;;7.30;99.90;;;;;;5028529;28;20268;-51
2021/05/07 00:40:27;;;;;;;4.57;2.43;;;7.40;99.90;;;;;;5027789;28;20229;-50
2021/05/07 00:42:56;;;;;;;5.07;2.37;;;7.30;99.90;;;;;;5026665;28;20236;-52
2021/05/07 00:45:26;;;;;;;7.60;2.90;;;7.30;99.90;;;;;;5026173;28;20236;-51
2021/05/07 00:47:59;;;;;;;3.70;2.63;;;7.30;99.90;;;;;;5026967;28;20244;-51
2021/05/07 00:50:30;;;;;;;4.47;2.70;;;7.20;99.90;;;;;;5042541;28;20239;-51
2021/05/07 00:53:00;;;;;;;5.40;2.70;;;7.20;99.90;;;;;;5043473;28;20738;-51
2021/05/07 00:55:29;;;;;;;4.40;2.60;;;7.30;99.90;;;;;;5043108;28;20233;-51
2021/05/07 00:57:57;;;;;;;5.60;2.70;;;7.30;99.90;;;;;;5043691;28;20256;-50
2021/05/07 01:00:28;;;;;;;5.37;2.87;;;7.30;99.90;;;;;;5042684;28;20249;-50
2021/05/07 01:02:56;;;;;;;4.80;2.47;;;7.20;99.90;;;;;;5042536;28;20229;-50
2021/05/07 01:05:23;;;;;;;4.77;2.47;;;7.20;99.90;;;;;;5027829;28;20237;-50
2021/05/07 01:07:51;;;;;;;3.57;2.40;;;7.10;99.90;;;;;;5027205;28;20237;-50
2021/05/07 01:10:20;;;;;;;3.67;2.87;;;7.10;99.90;;;;;;5042572;28;20392;-50
2021/05/07 01:12:48;;;;;;;6.87;2.43;;;7.00;99.90;;;;;;5042646;28;20240;-50
2021/05/07 01:15:27;;;;;;;4.37;2.80;;;6.90;99.90;;;;;;5022420;28;20291;-50
2021/05/07 01:18:05;;;;;;;3.25;2.13;;;6.90;99.90;;;;;;1275179;28;10022890;-50
2021/05/07 01:20:35;;;;;;;6.50;2.63;;;6.80;99.90;;;;;;5019953;28;20429;-50
2021/05/07 01:23:06;;;;;;;6.07;2.90;;;6.80;99.90;;;;;;5027474;28;20237;-52
2021/05/07 01:25:37;;;;;;;4.33;2.50;;;6.70;99.90;;;;;;5026141;28;20537;-52
2021/05/07 01:28:07;;;;;;;5.27;2.60;;;6.70;99.90;;;;;;5029154;28;20239;-51
2021/05/07 01:30:37;;;;;;;7.67;2.90;;;6.60;99.90;;;;;;5025350;28;20260;-51
2021/05/07 01:33:05;;;;;;;6.63;2.90;;;6.60;99.90;;;;;;5025976;28;20240;-50
2021/05/07 01:35:35;;;;;;;6.03;2.97;;;6.50;99.90;;;;;;5027296;28;20298;-54
2021/05/07 01:38:07;;;;;;;6.30;2.87;;;6.50;99.90;;;;;;5026410;28;20311;-51
2021/05/07 01:40:36;;;;;;;4.80;3.07;;;6.60;99.90;;;;;;5026491;28;20240;-49
2021/05/07 01:43:05;;;;;;;7.20;3.30;;;6.60;99.90;;;;;;5025747;28;20603;-50
2021/05/07 01:45:37;;;;;;;5.13;2.83;;;6.60;99.90;;;;;;5027323;28;20278;-53
2021/05/07 01:48:06;;;;;;;5.20;2.90;;;6.60;99.90;;;;;;5042211;28;20240;-51
2021/05/07 01:50:39;;;;;;;5.57;2.90;;;6.50;99.90;;;;;;5027189;28;20236;-50
2021/05/07 01:53:07;;;;;;;4.57;2.93;;;6.60;99.90;;;;;;5042874;28;20260;-50
2021/05/07 01:55:37;;;;;;;4.40;3.03;;;6.60;99.90;;;;;;5042478;28;20233;-50
2021/05/07 01:58:07;;;;;;;6.77;3.30;;;6.60;99.90;;;;;;5031691;28;20242;-49
2021/05/07 02:00:39;;;;;;;6.13;3.10;;;6.60;99.90;;;;;;5045483;28;20232;-50
2021/05/07 02:03:07;;;;;;;4.70;2.63;;;6.60;99.90;;;;;;5030176;28;20641;-50
2021/05/07 02:05:42;;;;;;;5.57;3.10;;;6.70;99.90;;;;;;5045575;28;20250;-50
2021/05/07 02:08:11;;;;;;;7.93;3.47;;;6.60;99.90;;;;;;5030396;28;20240;-50
2021/05/07 02:10:39;;;;;;;4.50;2.97;;;6.50;99.90;;;;;;5044763;28;20240;-51
2021/05/07 02:13:11;;;;;;;4.60;3.20;;;6.60;99.90;;;;;;5045153;28;20240;-51
2021/05/07 02:15:43;;;;;;;5.17;3.20;;;6.50;99.90;;;;;;5028719;28;20235;-51
2021/05/07 02:18:12;;;;;;;4.40;3.10;;;6.50;99.90;;;;;;5045287;28;20241;-50
2021/05/07 02:20:46;;;;;;;3.60;3.00;;;6.50;99.90;;;;;;5029371;28;20599;-50
2021/05/07 02:23:14;;;;;;;4.77;3.10;;;6.50;99.90;;;;;;5029188;28;20240;-51
2021/05/07 02:25:44;;;;;;;4.17;3.13;;;6.60;99.90;;;;;;5042509;28;20237;-51
2021/05/07 02:28:17;;;;;;;8.67;3.47;;;6.80;99.90;;;;;;5043654;28;20668;-51
2021/05/07 02:30:45;;;;;;;6.27;3.60;;;6.90;99.90;;;;;;5043943;28;20248;-50
2021/05/07 02:33:12;;;;;;;5.00;3.37;;;6.90;99.90;;;;;;5029524;28;20691;-52
2021/05/07 02:35:39;;;;;;;5.43;3.40;;;6.70;99.90;;;;;;5044337;28;20700;-50
2021/05/07 02:38:10;;;;;;;5.83;3.90;;;6.60;99.90;;;;;;5044863;28;20362;-51
2021/05/07 02:40:38;;;;;;;5.17;3.30;;;6.80;99.90;;;;;;5043890;28;20236;-51
2021/05/07 02:43:05;;;;;;;8.57;3.80;;;6.60;99.90;;;;;;5027621;28;20259;-51
2021/05/07 02:45:37;;;;;;;6.17;3.47;;;6.70;99.90;;;;;;5041972;28;20256;-51
2021/05/07 02:48:05;;;;;;;7.40;3.53;;;6.60;99.90;;;;;;5029636;28;20236;-50
2021/05/07 02:50:33;;;;;;;6.07;3.50;;;6.50;99.90;;;;;;5044869;28;20237;-50
2021/05/07 02:53:01;;;;;;;7.37;3.47;;;6.60;99.90;;;;;;5028582;28;20789;-50
2021/05/07 02:55:31;;;;;;;5.67;3.37;;;6.50;99.90;;;;;;5030083;28;20233;-51
2021/05/07 02:58:01;;;;;;;5.00;3.20;;;6.60;99.90;;;;;;5045693;28;20668;-49
2021/05/07 03:00:28;;;;;;;6.40;3.10;;;6.50;99.90;;;;;;5044751;28;20311;-50
2021/05/07 03:02:56;;;;;;;4.67;3.00;;;6.50;99.90;;;;;;5029697;28;20228;-50
2021/05/07 03:05:23;;;;;;;3.60;3.00;;;6.40;99.90;;;;;;5030745;28;20236;-50
2021/05/07 03:07:50;;;;;;;6.97;3.30;;;6.40;99.90;;;;;;5029241;28;20248;-51
2021/05/07 03:10:18;;;;;;;6.27;3.10;;;6.40;99.90;;;;;;5029707;28;20233;-50
2021/05/07 03:12:46;;;;;;;7.60;2.70;;;6.40;99.90;;;;;;5028889;28;20247;-50
2021/05/07 03:15:14;;;;;;;4.73;2.63;;;6.30;99.90;;;;;;5030314;28;21038;-50
2021/05/07 03:17:41;;;;;;;5.50;2.43;;;6.30;99.90;;;;;;5030136;28;20290;-51
2021/05/07 03:20:11;;;;;;;7.03;2.40;;;6.20;99.90;;;;;;5029303;28;20243;-49
2021/05/07 03:22:38;;;;;;;3.37;2.30;;;6.20;99.90;;;;;;5031606;28;20336;-49
2021/05/07 03:25:07;;;;;;;4.27;2.10;;;6.20;99.90;;;;;;5029711;28;20240;-51
2021/05/07 03:27:34;;;;;;;4.37;2.30;;;6.20;99.90;;;;;;5025366;28;20253;-51
2021/05/07 03:30:04;;;;;;;5.93;2.50;;;6.10;99.90;;;;;;5029372;28;20244;-49
2021/05/07 03:32:31;;;;;;;4.90;2.20;;;6.10;99.90;;;;;;5029225;28;20263;-49
2021/05/07 03:34:58;;;;;;;4.83;2.00;;;6.00;99.90;;;;;;5044624;28;20636;-51
2021/05/07 03:37:26;;;;;;;6.93;2.73;;;6.10;99.90;;;;;;5029612;28;20867;-50
2021/05/07 03:39:53;;;;;;;3.83;2.43;;;6.00;99.90;;;;;;5029272;28;20244;-50
2021/05/07 03:42:20;;;;;;;5.13;2.60;;;6.10;99.90;;;;;;5029127;28;20303;-50
2021/05/07 03:44:50;;;;;;;4.63;2.40;;;6.10;99.90;;;;;;5029624;28;20699;-50
2021/05/07 03:47:18;;;;;;;4.47;2.30;;;6.10;99.90;;;;;;5028680;28;20320;-50
2021/05/07 03:49:46;;;;;;;3.17;1.93;;;6.00;99.90;;;;;;5028346;28;20244;-49
2021/05/07 03:52:14;;;;;;;4.77;2.57;;;6.00;99.90;;;;;;5029226;28;22266;-50
2021/05/07 03:54:44;;;;;;;4.83;2.23;;;6.00;99.90;;;;;;5029323;28;20252;-50
2021/05/07 03:57:11;;;;;;;2.70;2.20;;;6.00;99.90;;;;;;5029353;28;20240;-50
2021/05/07 03:59:39;;;;;;;3.43;2.17;;;6.00;99.90;;;;;;5028660;28;20286;-50
2021/05/07 04:02:06;;;;;;;3.83;2.17;;;6.00;99.90;;;;;;5028490;28;20235;-50
2021/05/07 04:04:36;;;;;;;4.70;2.20;;;6.10;99.90;;;;;;5029233;28;20290;-50
2021/05/07 04:07:03;;;;;;;6.27;2.27;;;6.10;99.90;;;;;;5029278;28;20283;-51
2021/05/07 04:09:34;;;;;;;7.07;2.50;;;6.00;99.90;;;;;;5028402;28;20252;-51
2021/05/07 04:12:13;;;;;;;7.00;3.33;;;6.10;99.90;;;;;;5028043;28;20666;-50
2021/05/07 04:14:41;;;;;;;5.83;2.80;;;6.00;99.90;;;;;;5028902;28;20247;-53
2021/05/07 04:17:08;;;;;;;3.93;2.13;;;6.00;99.90;;;;;;5028717;28;20283;-50
2021/05/07 04:19:36;;;;;;;6.10;2.70;;;6.10;99.90;;;;;;5028433;28;20271;-50
2021/05/07 04:22:04;;;;;;;4.03;2.20;;;6.10;99.90;;;;;;5028303;28;20315;-50
2021/05/07 04:24:31;;;;;;;3.17;2.20;;;6.10;99.90;;;;;;5026296;28;20895;-50
2021/05/07 04:27:00;;;;;;;2.73;2.17;;;6.10;99.90;;;;;;5028171;28;20276;-49
2021/05/07 04:29:27;;;;;;;3.90;2.40;;;6.00;99.90;;;;;;5028060;28;20600;-51
2021/05/07 04:31:54;;;;;;;4.57;2.50;;;6.00;99.90;;;;;;5028401;28;20310;-52
2021/05/07 04:34:22;;;;;;;4.83;3.00;;;6.00;99.90;;;;;;5029294;28;20233;-50
2021/05/07 04:36:50;;;;;;;4.00;2.60;;;6.10;99.90;;;;;;5028669;28;20238;-50
2021/05/07 04:39:17;;;;;;;4.43;3.00;;;6.00;99.90;;;;;;5028059;28;20240;-53
2021/05/07 04:41:44;;;;;;;3.60;2.93;;;6.00;99.90;;;;;;5028090;28;20857;-50
2021/05/07 04:44:16;;;;;;;5.27;2.97;;;6.20;99.90;;;;;;5028463;28;20583;-52
2021/05/07 04:46:43;;;;;;;5.03;3.20;;;6.20;99.90;;;;;;5028124;28;20233;-51
2021/05/07 04:49:13;;;;;;;5.00;3.30;;;6.20;99.90;;;;;;5027774;28;20236;-51
2021/05/07 04:51:41;;;;;;;4.53;3.43;;;6.10;99.90;;;;;;5027450;28;20291;-52
2021/05/07 04:54:09;;;;;;;6.13;3.70;;;6.10;99.90;;;;;;5028108;28;20665;-50
2021/05/07 04:56:36;;;;;;;6.53;3.80;;;6.10;99.90;;;;;;5028412;28;20237;-51
2021/05/07 04:59:04;;;;;;;5.07;3.53;;;6.10;99.90;;;;;;5028110;28;20240;-51
2021/05/07 05:01:31;;;;;;;3.90;3.40;;;6.10;99.90;;;;;;5026593;28;20894;-51
2021/05/07 05:03:58;;;;;;;5.00;3.33;;;6.10;99.90;;;;;;5027869;28;20232;-50
2021/05/07 05:06:26;;;;;;;7.67;4.20;;;6.10;99.90;;;;;;5039978;28;20248;-50
2021/05/07 05:08:54;;;;;;;5.10;3.83;;;6.40;99.90;;;;;;5048040;28;20273;-51
2021/05/07 05:11:22;;;;;;;4.67;3.37;;;6.40;99.90;;;;;;5042915;28;20599;-51
2021/05/07 05:13:49;;;;;;;5.37;3.70;;;6.40;99.90;;;;;;5027677;28;20315;-50
2021/05/07 05:16:18;;;;;;;4.73;3.40;;;6.40;99.90;;;;;;5027639;28;20700;-50
2021/05/07 05:18:45;;;;;;;5.80;3.10;;;6.40;99.90;;;;;;5027938;28;20248;-51
2021/05/07 05:21:13;;;;;;;5.93;3.33;;;6.40;99.90;;;;;;5026510;28;20337;-51
2021/05/07 05:23:48;;;;;;;5.30;3.30;;;6.30;99.90;;;;;;5027484;28;20291;-50
2021/05/07 05:26:18;;;;;;;3.33;3.03;;;6.40;99.90;;;;;;5027572;28;20699;-51
2021/05/07 05:28:46;;;;;;;4.37;3.13;;;6.40;99.90;;;;;;5027468;28;20588;-50
2021/05/07 05:31:14;;;;;;;5.00;3.27;;;6.40;99.90;;;;;;5026105;28;20252;-51
2021/05/07 05:33:41;;;;;;;3.40;3.10;;;6.40;99.90;;;;;;5042236;28;20574;-52
2021/05/07 05:36:09;;;;;;;4.57;2.87;;;6.50;99.90;;;;;;5027779;28;20236;-50
2021/05/07 05:38:36;;;;;;;3.87;3.13;;;6.50;99.90;;;;;;5026994;28;20260;-51
2021/05/07 05:41:04;;;;;;;4.70;3.17;;;6.50;99.90;;;;;;5026967;28;20236;-50
2021/05/07 05:43:31;;;;;;;6.00;2.97;;;6.50;99.90;;;;;;5026805;28;20664;-52
2021/05/07 05:45:59;;;;;;;3.20;2.90;;;6.50;99.90;;;;;;5027143;28;20305;-52
2021/05/07 05:48:27;;;;;;;4.33;2.50;;;6.50;99.90;;;;;;5026296;28;20228;-50
2021/05/07 05:50:54;;;;;;;5.30;2.60;;;6.40;99.90;;;;;;5027170;28;20231;-52
2021/05/07 05:53:22;;;;;;;2.67;2.30;;;6.40;99.90;;;;;;5027463;28;20232;-50
2021/05/07 05:55:49;;;;;;;3.53;2.50;;;6.40;99.90;;;;;;5027670;28;20225;-51
2021/05/07 05:58:16;;;;;;;3.50;2.40;;;6.50;99.90;;;;;;5027455;28;20319;-51
2021/05/07 06:00:44;;;;;;;2.90;2.30;;;6.50;99.90;;;;;;5026035;28;20266;-51
2021/05/07 06:03:12;;;;;;;2.87;2.27;;;6.60;99.90;;;;;;5027177;28;20245;-52
2021/05/07 06:05:40;;;;;;;3.83;2.23;;;6.60;99.90;;;;;;5041815;28;20232;-49
2021/05/07 06:08:07;;;;;;;3.67;1.87;;;6.70;99.90;;;;;;5042907;28;20236;-50
2021/05/07 06:10:34;;;;;;;2.53;1.70;;;6.70;99.90;;;;;;5026304;28;20295;-52
2021/05/07 06:13:02;;;;;;;2.83;1.90;;;6.80;99.90;;;;;;5027248;28;20323;-52
2021/05/07 06:15:29;;;;;;;3.60;1.87;;;6.80;99.90;;;;;;5028751;28;20251;-50
2021/05/07 06:17:57;;;;;;;4.37;1.80;;;6.80;99.90;;;;;;5026820;28;20732;-51
2021/05/07 06:20:25;;;;;;;2.37;1.60;;;6.80;99.90;;;;;;5024709;28;20236;-51
2021/05/07 06:22:52;;;;;;;2.63;1.80;;;6.90;99.90;;;;;;5027577;28;20650;-51
2021/05/07 06:25:21;;;;;;;2.00;1.70;;;6.90;99.90;;;;;;5026417;28;20240;-50
2021/05/07 06:27:48;;;;;;;2.57;1.70;;;7.00;99.90;;;;;;5026925;28;20692;-52
2021/05/07 06:30:17;;;;;;;1.60;1.50;;;7.10;99.90;;;;;;5026590;28;20252;-52
2021/05/07 06:32:44;;;;;;;2.80;1.40;;;7.10;99.90;;;;;;5026706;28;20284;-53
2021/05/07 06:35:13;;;;;;;2.23;1.70;;;7.10;99.90;;;;;;5027035;28;20236;-54
2021/05/07 06:37:44;;;;;;;4.43;1.50;;;7.20;99.90;;;;;;5027206;28;20256;-50
2021/05/07 06:40:13;;;;;;;2.40;1.40;;;7.60;99.90;;;;;;5026379;28;20642;-50
2021/05/07 06:42:41;;;;;;;1.70;1.20;;;8.00;99.90;;;;;;5026601;28;20232;-50
2021/05/07 06:45:11;;;;;;;2.07;1.40;;;8.40;99.90;;;;;;5030644;28;20252;-50
2021/05/07 06:47:38;;;;;;;2.60;1.40;;;8.80;99.90;;;;;;5030609;28;20236;-53
2021/05/07 06:50:09;;;;;;;2.97;1.30;;;9.20;99.90;;;;;;5029963;28;20241;-51
2021/05/07 06:52:36;;;;;;;1.27;1.10;;;9.40;99.90;;;;;;5030069;28;20243;-52
2021/05/07 06:55:08;;;;;;;2.80;1.30;;;9.90;99.90;;;;;;5044778;28;20264;-50
2021/05/07 06:57:36;;;;;;;1.20;0.97;;;10.20;99.90;;;;;;5030262;28;20317;-51
2021/05/07 07:00:09;;;;;;;1.90;1.27;;;10.60;99.90;;;;;;5029766;28;20271;-53
2021/05/07 07:02:36;;;;;;;2.43;1.10;;;10.70;99.90;;;;;;5029590;28;20238;-54
2021/05/07 07:05:06;;;;;;;1.10;0.93;;;10.40;99.90;;;;;;5030440;28;20241;-51
2021/05/07 07:07:35;;;;;;;2.63;1.10;;;10.10;99.90;;;;;;5029700;28;20293;-52
2021/05/07 07:10:21;;;;;;;3.97;1.20;;;9.50;99.90;;;;;;5029481;28;20230;-51
2021/05/07 07:12:48;;;;;;;2.73;1.37;;;9.20;99.90;;;;;;5031985;28;20246;-53
2021/05/07 07:15:16;;;;;;;2.23;1.20;;;9.10;99.90;;;;;;5035200;28;20234;-50
2021/05/07 07:17:44;;;;;;;1.10;1.00;;;9.40;99.90;;;;;;5026607;28;20354;-53
2021/05/07 07:20:12;;;;;;;2.10;1.40;;;9.90;99.90;;;;;;5029109;28;20243;-53
2021/05/07 07:22:40;;;;;;;2.00;1.13;;;10.20;99.90;;;;;;5029351;28;20709;-50
2021/05/07 07:25:10;;;;;;;1.87;1.00;;;10.90;99.90;;;;;;5028240;28;20247;-54
2021/05/07 07:27:41;;;;;;;2.80;1.10;;;11.80;99.90;;;;;;5028812;28;20734;-51
2021/05/07 07:30:10;;;;;;;1.40;1.23;;;11.30;99.90;;;;;;5027930;28;20248;-51
2021/05/07 07:32:38;;;;;;;1.83;1.17;;;10.40;99.90;;;;;;5027859;28;20240;-52
2021/05/07 07:35:06;;;;;;;1.80;1.20;;;9.90;99.90;;;;;;5028281;28;20325;-52
2021/05/07 07:37:34;;;;;;;3.00;1.53;;;9.60;99.90;;;;;;5027528;28;20253;-50
2021/05/07 07:40:01;;;;;;;3.00;1.40;;;9.90;99.90;;;;;;5027330;28;20234;-53
2021/05/07 07:42:29;;;;;;;2.33;1.30;;;10.50;99.90;;;;;;5027730;28;20341;-52
2021/05/07 07:44:57;;;;;;;3.07;1.20;;;11.20;99.90;;;;;;5027289;28;20243;-53
2021/05/07 07:47:25;;;;;;;2.10;1.20;;;11.10;99.90;;;;;;5028027;28;20238;-52
2021/05/07 07:49:53;;;;;;;4.33;1.20;;;10.60;99.90;;;;;;5027562;28;20324;-50
2021/05/07 07:52:21;;;;;;;2.47;1.20;;;10.80;99.90;;;;;;5027730;28;20243;-51
2021/05/07 07:54:48;;;;;;;3.57;1.20;;;11.50;99.90;;;;;;5024113;28;20235;-52
2021/05/07 07:57:16;;;;;;;1.53;1.30;;;11.60;99.90;;;;;;5027649;28;20242;-54
2021/05/07 07:59:44;;;;;;;2.07;1.37;;;11.60;99.90;;;;;;5028987;28;20262;-51
2021/05/07 08:02:12;;;;;;;6.93;1.43;;;11.20;99.90;;;;;;5029775;28;20253;-53
2021/05/07 08:04:40;;;;;;;2.13;1.20;;;10.90;99.90;;;;;;5029332;28;20244;-51
2021/05/07 08:07:07;;;;;;;1.97;1.20;;;10.80;99.90;;;;;;5028641;28;20247;-51
2021/05/07 08:09:35;;;;;;;3.17;1.50;;;10.80;99.90;;;;;;5028464;28;20233;-51
2021/05/07 08:12:03;;;;;;;2.60;1.20;;;11.10;99.90;;;;;;5028077;28;20285;-53
2021/05/07 08:14:30;;;;;;;2.07;1.10;;;11.90;99.90;;;;;;5028685;28;20242;-51
2021/05/07 08:16:58;;;;;;;2.13;1.17;;;12.00;99.90;;;;;;5028143;28;20276;-53
2021/05/07 08:19:26;;;;;;;3.23;1.40;;;11.70;99.90;;;;;;5028811;28;20340;-51
2021/05/07 08:21:54;;;;;;;3.83;1.20;;;12.00;99.90;;;;;;5029579;28;20729;-51
2021/05/07 08:24:22;;;;;;;2.70;1.70;;;11.80;99.90;;;;;;5029444;28;20694;-51
2021/05/07 08:26:50;;;;;;;2.80;1.13;;;11.30;99.90;;;;;;5029022;28;21058;-51
2021/05/07 08:29:17;;;;;;;4.47;1.30;;;11.00;99.90;;;;;;5029967;28;20487;-51
2021/05/07 08:31:45;;;;;;;2.07;1.30;;;10.90;99.90;;;;;;5029104;28;20238;-51
2021/05/07 08:34:16;;;;;;;2.00;0.90;;;10.40;99.90;;;;;;5027836;28;20253;-51
2021/05/07 08:36:44;;;;;;;1.47;1.10;;;9.80;99.90;;;;;;5026745;28;20827;-51
2021/05/07 08:39:11;;;;;;;1.73;0.97;;;9.40;99.90;;;;;;5029874;28;20301;-50
2021/05/07 08:41:39;;;;;;;1.43;0.93;;;9.30;99.90;;;;;;5029757;28;20428;-51
2021/05/07 08:44:07;;;;;;;2.10;1.00;;;9.30;99.90;;;;;;5029400;28;20307;-50
2021/05/07 08:46:36;;;;;;;2.23;1.10;;;9.50;99.90;;;;;;5026161;28;20251;-53
2021/05/07 08:49:04;;;;;;;2.77;1.40;;;9.60;99.90;;;;;;5028964;28;20256;-52
2021/05/07 08:51:32;;;;;;;1.40;1.20;;;10.50;99.90;;;;;;5028471;28;20273;-51
2021/05/07 08:54:00;;;;;;;3.07;1.30;;;11.40;99.90;;;;;;5031130;28;20814;-52
2021/05/07 08:56:35;;;;;;;1.90;1.10;;;12.40;99.90;;;;;;5018137;28;20241;-51
2021/05/07 08:59:03;;;;;;;2.10;1.10;;;13.10;99.90;;;;;;5027376;28;20235;-51
2021/05/07 09:01:44;;;;;;;2.20;1.00;;;12.90;99.90;;;;;;5026425;28;20309;-51
2021/05/07 09:04:13;;;;;;;4.47;1.37;;;12.40;99.90;;;;;;5027032;28;20281;-52
2021/05/07 09:06:49;;;;;;;3.50;0.90;;;11.40;99.90;;;;;;5027111;28;20317;-51
2021/05/07 09:09:21;;;;;;;2.47;0.90;;;10.00;99.90;;;;;;5025602;28;20598;-52
2021/05/07 09:11:50;;;;;;;1.30;0.83;;;9.10;99.90;;;;;;5024246;28;20242;-51
2021/05/07 09:14:18;;;;;;;2.20;1.10;;;8.40;99.90;;;;;;5024637;28;20231;-51
2021/05/07 09:16:58;;;;;;;2.30;1.27;;;8.20;99.90;;;;;;5026866;28;20743;-51
2021/05/07 09:19:28;;;;;;;3.90;1.03;;;8.20;99.90;;;;;;5026986;28;20593;-52
2021/05/07 09:21:59;;;;;;;1.50;1.20;;;8.20;99.90;;;;;;5027737;28;20292;-53
2021/05/07 09:24:31;;;;;;;1.50;1.10;;;8.20;99.90;;;;;;5027666;28;20234;-51
2021/05/07 09:27:05;;;;;;;3.70;1.30;;;8.30;99.90;;;;;;5027357;28;20262;-50
2021/05/07 09:29:35;;;;;;;2.10;1.20;;;8.30;99.90;;;;;;5027195;28;20226;-50
2021/05/07 09:32:04;;;;;;;2.60;1.50;;;8.10;99.90;;;;;;5027258;28;20237;-50
2021/05/07 09:34:36;;;;;;;1.57;1.03;;;7.90;99.90;;;;;;5027540;28;20249;-53
2021/05/07 09:37:14;;;;;;;1.30;0.90;;;7.70;99.90;;;;;;5027749;28;20350;-51
2021/05/07 09:39:43;;;;;;;1.10;0.80;;;7.50;99.90;;;;;;5026886;28;20239;-51
2021/05/07 09:42:21;;;;;;;1.20;0.80;;;7.40;99.90;;;;;;5027185;28;20592;-53
2021/05/07 09:44:49;;;;;;;1.33;0.80;;;7.50;99.90;;;;;;5027052;28;20236;-52
2021/05/07 09:47:16;;;;;;;0.87;0.80;;;7.60;99.90;;;;;;5026461;28;20713;-53
2021/05/07 09:49:45;;;;;;;1.13;0.70;;;7.90;99.90;;;;;;5026509;28;20713;-53
2021/05/07 09:52:12;;;;;;;0.77;0.60;;;8.10;99.90;;;;;;5027086;28;20605;-51
2021/05/07 09:54:51;;;;;;;0.97;0.70;;;8.20;99.90;;;;;;5027311;28;20237;-51
2021/05/07 09:57:19;;;;;;;1.00;0.70;;;8.40;99.90;;;;;;5042992;28;20624;-50
2021/05/07 09:59:48;;;;;;;1.43;0.83;;;8.50;99.90;;;;;;5026802;28;20240;-50
2021/05/07 10:02:16;;;;;;;2.00;0.80;;;8.80;99.90;;;;;;5026993;28;20241;-51
2021/05/07 10:04:44;;;;;;;1.03;0.73;;;9.00;99.90;;;;;;5026894;28;20241;-50
2021/05/07 10:07:12;;;;;;;1.53;0.90;;;9.10;99.90;;;;;;5029750;28;20240;-53
2021/05/07 10:09:40;;;;;;;3.93;1.20;;;9.50;99.90;;;;;;5017636;28;20229;-52
2021/05/07 10:12:11;;;;;;;2.10;1.20;;;9.90;99.90;;;;;;5026694;28;20246;-51
2021/05/07 10:14:44;;;;;;;1.10;1.00;;;10.20;99.90;;;;;;5019058;28;20230;-50
2021/05/07 10:17:12;;;;;;;2.17;1.30;;;10.70;99.90;;;;;;5025783;28;20245;-50
2021/05/07 10:19:44;;;;;;;1.50;1.00;;;11.40;99.90;;;;;;5030537;28;20282;-51
2021/05/07 10:22:36;;;;;;;2.27;1.10;;;11.90;99.90;;;;;;5030381;28;20246;-51
2021/05/07 10:25:15;;;;;;;2.63;1.00;;;12.10;99.90;;;;;;5030894;28;20267;-50
2021/05/07 10:27:47;;;;;;;3.07;1.43;;;12.30;99.90;;;;;;5027446;28;20625;-51
2021/05/07 10:30:32;;;;;;;1.73;1.27;;;12.60;99.90;;;;;;5025517;28;20277;-52
2021/05/07 10:33:09;;;;;;;3.30;1.40;;;13.00;99.90;;;;;;5030272;28;20248;-52
2021/05/07 10:35:39;;;;;;;3.00;1.20;;;12.90;99.90;;;;;;5029485;28;20256;-51
2021/05/07 10:38:16;;;;;;;1.60;1.20;;;13.60;99.90;;;;;;5030728;28;20243;-52
2021/05/07 10:40:45;;;;;;;2.27;1.30;;;12.80;99.90;;;;;;5030853;28;20259;-53
2021/05/07 10:43:14;;;;;;;3.67;1.10;;;12.20;99.90;;;;;;5028543;28;20323;-51
2021/05/07 10:45:47;;;;;;;1.80;0.97;;;11.50;99.90;;;;;;5028906;28;20300;-52
2021/05/07 10:48:26;;;;;;;5.17;1.27;;;10.90;99.90;;;;;;5029744;28;20314;-52
2021/05/07 10:50:56;;;;;;;1.77;1.10;;;10.70;99.90;;;;;;5026789;28;20249;-54
2021/05/07 10:53:33;;;;;;;1.70;0.93;;;10.90;99.90;;;;;;5027269;28;20247;-52
2021/05/07 10:56:02;;;;;;;1.80;1.00;;;11.40;99.90;;;;;;5028576;28;20635;-51
2021/05/07 10:58:38;;;;;;;2.37;0.90;;;11.80;99.90;;;;;;5027545;28;20631;-50
2021/05/07 11:01:22;;;;;;;1.73;1.03;;;11.50;99.90;;;;;;5028847;28;20243;-51
2021/05/07 11:04:07;;;;;;;2.50;1.20;;;10.80;99.90;;;;;;5029806;28;20289;-51
2021/05/07 11:06:37;;;;;;;1.87;1.03;;;10.30;99.90;;;;;;5028305;28;20235;-50
2021/05/07 11:09:21;;;;;;;2.80;1.10;;;10.10;99.90;;;;;;5028688;28;20248;-51
2021/05/07 11:11:50;;;;;;;2.30;1.20;;;9.80;99.90;;;;;;5029392;28;20308;-50
2021/05/07 11:14:20;;;;;;;2.73;1.00;;;9.80;99.90;;;;;;5028779;28;20249;-52
2021/05/07 11:16:49;;;;;;;2.57;1.07;;;9.70;99.90;;;;;;5027708;28;20281;-51
2021/05/07 11:19:25;;;;;;;1.97;0.87;;;9.50;99.90;;;;;;5028133;28;20236;-51
2021/05/07 11:21:55;;;;;;;2.17;1.10;;;9.60;99.90;;;;;;5027611;28;20231;-50
2021/05/07 11:24:25;;;;;;;2.83;1.00;;;10.40;99.90;;;;;;5021532;28;20697;-52
2021/05/07 11:26:52;;;;;;;3.13;0.80;;;11.20;99.90;;;;;;5027957;28;20262;-50
2021/05/07 11:29:32;;;;;;;2.33;0.90;;;11.50;99.90;;;;;;5027043;28;20634;-50
2021/05/07 11:32:11;;;;;;;2.83;1.10;;;12.40;99.90;;;;;;5025700;28;20278;-53
2021/05/07 11:34:40;;;;;;;1.43;0.93;;;13.20;99.90;;;;;;5028022;28;20243;-52
2021/05/07 11:37:08;;;;;;;4.30;1.10;;;13.40;99.90;;;;;;5026449;28;20235;-51
2021/05/07 11:39:36;;;;;;;1.47;0.90;;;12.90;99.90;;;;;;5027296;28;20243;-50
2021/05/07 11:42:05;;;;;;;1.53;0.80;;;12.20;99.90;;;;;;5027441;28;20236;-54
2021/05/07 11:44:33;;;;;;;2.20;0.80;;;11.40;99.90;;;;;;5018465;28;21789;-54
2021/05/07 11:47:06;;;;;;;1.50;0.90;;;10.70;99.90;;;;;;5018383;28;20638;-51
2021/05/07 11:49:36;;;;;;;2.20;1.00;;;10.40;99.90;;;;;;5013850;28;20240;-52
2021/05/07 11:52:05;;;;;;;4.33;1.17;;;10.40;99.90;;;;;;5029932;28;20243;-50
2021/05/07 11:54:41;;;;;;;1.97;1.10;;;10.50;99.90;;;;;;5019401;28;20294;-51
2021/05/07 11:57:09;;;;;;;1.53;0.80;;;10.60;99.90;;;;;;5008495;28;20312;-52
2021/05/07 11:59:46;;;;;;;1.50;1.00;;;10.70;99.90;;;;;;5023395;28;20499;-52
2021/05/07 12:02:33;;;;;;;1.83;1.00;;;10.80;99.90;;;;;;5024409;28;20231;-51
2021/05/07 12:05:05;;;;;;;2.00;0.87;;;10.60;99.90;;;;;;5022126;28;20250;-52
2021/05/07 12:07:37;;;;;;;1.83;1.30;;;10.70;99.90;;;;;;5027138;28;20697;-51
2021/05/07 12:10:06;;;;;;;3.90;1.40;;;10.70;99.90;;;;;;5027248;28;20326;-51
2021/05/07 12:12:43;;;;;;;2.10;1.10;;;10.90;99.90;;;;;;5027150;28;20309;-52
2021/05/07 12:15:14;;;;;;;2.47;1.03;;;11.10;99.90;;;;;;5027604;28;20262;-53
2021/05/07 12:17:44;;;;;;;2.13;1.13;;;11.20;99.90;;;;;;5027584;28;20231;-53
2021/05/07 12:20:14;;;;;;;3.17;1.23;;;11.20;99.90;;;;;;5026764;28;20710;-52
2021/05/07 12:22:42;;;;;;;3.97;1.30;;;11.30;99.90;;;;;;5024065;28;20259;-50
2021/05/07 12:25:12;;;;;;;4.00;1.40;;;11.50;99.90;;;;;;5026928;28;20235;-50
2021/05/07 12:27:46;;;;;;;3.73;1.30;;;11.40;99.90;;;;;;5024541;28;20721;-50
2021/05/07 12:30:22;;;;;;;2.60;1.10;;;11.10;99.90;;;;;;5023018;28;20240;-49
2021/05/07 12:33:02;;;;;;;1.33;1.07;;;10.40;99.90;;;;;;5022319;28;20703;-51
2021/05/07 12:35:42;;;;;;;1.70;0.90;;;9.80;99.90;;;;;;5024442;28;20247;-52
2021/05/07 12:38:25;;;;;;;2.00;0.80;;;9.50;99.90;;;;;;5025865;28;20292;-49
2021/05/07 12:40:53;;;;;;;1.53;0.97;;;9.40;99.90;;;;;;5025729;28;20681;-49
2021/05/07 12:43:21;;;;;;;1.97;1.20;;;9.30;99.90;;;;;;5026920;28;20328;-50
2021/05/07 12:45:50;;;;;;;1.70;1.00;;;9.30;99.90;;;;;;5026511;28;20251;-50
2021/05/07 12:48:30;;;;;;;2.50;1.20;;;9.30;99.90;;;;;;5024288;28;20240;-52
2021/05/07 12:51:01;;;;;;;6.80;1.40;;;9.40;99.90;;;;;;5024575;28;20312;-52
2021/05/07 12:53:29;;;;;;;2.27;1.30;;;9.50;99.90;;;;;;5023201;28;20294;-51
2021/05/07 12:55:57;;;;;;;2.47;1.30;;;9.50;99.90;;;;;;5026071;28;20719;-50
2021/05/07 12:58:25;;;;;;;4.53;1.70;;;9.50;99.90;;;;;;5024454;28;20617;-50
2021/05/07 13:00:54;;;;;;;1.93;1.20;;;9.60;99.90;;;;;;5025661;28;20772;-51
2021/05/07 13:03:23;;;;;;;3.00;1.40;;;9.60;99.90;;;;;;5021885;28;20240;-50
2021/05/07 13:05:51;;;;;;;4.53;1.30;;;9.80;99.90;;;;;;5023353;28;20593;-49